< < Back
Terminal Aerodrome Forecast


Current Version              Previous Versions:   1  2  3  4  5  6  7  8  9  

Terminal Aerodrome Forecast

922
FTUS42 KFFC 271726
TAFMCN
TAF
KMCN 271726Z 2718/2818 VRB04KT P6SM BKN035
     FM272000 17006KT P6SM VCSH BKN035
      TEMPO 2721/2724 3SM -TSRA BKN025CB
     FM280000 VRB03KT P6SM BKN040
     FM280500 VRB03KT P6SM SCT020 BKN080
     FM281000 VRB03KT P6SM BKN015
     FM281400 14003KT P6SM BKN025=



Latest METAR

894
SAUS80 KWBC 272000 RRA
MTRMCN
METAR KMCN 271953Z VRB03KT 10SM FEW038 29/19 A3017 RMK AO2 SLP213
T02890189


USA.gov is the U.S. government's official web portal to all federal, state and local government web resources and services.